createdAt,value
2022-08-03T00:01:24.769Z,16.83
2022-08-03T00:03:51.776Z,16.63
2022-08-03T00:06:18.820Z,15.63
2022-08-03T00:08:45.823Z,16.08
2022-08-03T00:11:12.856Z,17.30
2022-08-03T00:13:39.851Z,11.98
2022-08-03T00:16:06.869Z,21.23
2022-08-03T00:18:33.877Z,11.60
2022-08-03T00:21:00.896Z,17.75
2022-08-03T00:23:33.130Z,9.57
2022-08-03T00:26:14.870Z,14.02
2022-08-03T00:28:41.870Z,13.10
2022-08-03T00:31:08.874Z,16.35
2022-08-03T00:33:58.441Z,17.17
2022-08-03T00:36:27.025Z,16.63
2022-08-03T00:38:54.038Z,14.27
2022-08-03T00:41:21.025Z,12.35
2022-08-03T00:43:48.075Z,15.10
2022-08-03T00:46:19.217Z,11.68
2022-08-03T00:48:48.503Z,14.05
2022-08-03T00:51:15.527Z,10.52
2022-08-03T00:53:42.510Z,9.60
2022-08-03T00:56:09.531Z,18.25
2022-08-03T00:58:36.527Z,16.45
2022-08-03T01:01:03.581Z,16.77
2022-08-03T01:03:30.616Z,14.20
2022-08-03T01:05:57.618Z,15.23
2022-08-03T01:08:24.608Z,12.48
2022-08-03T01:10:51.633Z,13.32
2022-08-03T01:13:59.170Z,13.45
2022-08-03T01:16:05.610Z,12.30
2022-08-03T01:18:32.601Z,12.80
2022-08-03T01:20:59.614Z,13.73
2022-08-03T01:23:28.937Z,15.32
2022-08-03T01:25:56.145Z,16.50
2022-08-03T01:28:23.142Z,17.35
2022-08-03T01:30:50.157Z,11.43
2022-08-03T01:33:17.161Z,11.55
2022-08-03T01:35:44.160Z,18.05
2022-08-03T01:38:11.257Z,10.95
2022-08-03T01:40:38.300Z,19.17
2022-08-03T01:43:05.287Z,8.25
2022-08-03T01:45:34.131Z,14.90
2022-08-03T01:48:01.420Z,10.35
2022-08-03T01:50:28.402Z,17.63
2022-08-03T01:52:55.422Z,15.10
2022-08-03T01:55:22.407Z,11.40
2022-08-03T01:58:04.765Z,12.00
2022-08-03T02:00:33.372Z,9.70
2022-08-03T02:03:00.384Z,19.95
2022-08-03T02:05:27.385Z,14.80
2022-08-03T02:07:54.406Z,13.63
2022-08-03T02:10:34.599Z,12.10
2022-08-03T02:13:02.719Z,12.55
2022-08-03T02:15:29.718Z,19.27
2022-08-03T02:17:56.731Z,16.20
2022-08-03T02:20:23.724Z,20.27
2022-08-03T02:22:50.744Z,24.17
2022-08-03T02:25:17.735Z,19.10
2022-08-03T02:27:44.740Z,20.65
2022-08-03T02:30:11.738Z,14.45
2022-08-03T02:32:38.737Z,16.45
2022-08-03T02:35:05.730Z,14.20
2022-08-03T02:37:32.740Z,20.23
2022-08-03T02:39:59.740Z,15.70
2022-08-03T02:42:26.747Z,15.15
2022-08-03T02:44:53.760Z,16.40
2022-08-03T02:47:20.768Z,18.05
2022-08-03T02:49:51.649Z,14.50
2022-08-03T02:52:19.239Z,16.75
2022-08-03T02:54:46.435Z,15.55
2022-08-03T02:57:13.425Z,19.50
2022-08-03T02:59:40.455Z,14.98
2022-08-03T03:02:07.438Z,18.02
2022-08-03T03:04:34.443Z,17.17
2022-08-03T03:07:01.768Z,17.20
2022-08-03T03:09:40.267Z,19.20
2022-08-03T03:12:08.548Z,19.73
2022-08-03T03:14:35.555Z,18.38
2022-08-03T03:17:02.550Z,14.27
2022-08-03T03:19:29.554Z,20.60
2022-08-03T03:21:56.539Z,17.83
2022-08-03T03:24:23.537Z,20.85
2022-08-03T03:26:50.538Z,15.85
2022-08-03T03:29:17.547Z,16.67
2022-08-03T03:31:44.573Z,15.45
2022-08-03T03:34:11.574Z,14.07
2022-08-03T03:36:38.557Z,18.42
2022-08-03T03:39:15.541Z,14.95
2022-08-03T03:41:43.137Z,14.50
2022-08-03T03:44:10.164Z,18.05
2022-08-03T03:46:37.157Z,19.60
2022-08-03T03:49:04.226Z,16.20
2022-08-03T03:51:31.282Z,18.40
2022-08-03T03:53:58.308Z,16.45
2022-08-03T03:56:25.304Z,17.38
2022-08-03T03:58:52.306Z,16.85
2022-08-03T04:01:19.339Z,16.10
2022-08-03T04:03:46.402Z,15.77
2022-08-03T04:06:13.385Z,18.52
2022-08-03T04:08:40.397Z,18.13
2022-08-03T04:11:09.153Z,15.00
2022-08-03T04:13:36.159Z,18.73
2022-08-03T04:16:03.153Z,10.77
2022-08-03T04:18:30.176Z,15.32
2022-08-03T04:20:57.356Z,11.43
2022-08-03T04:23:24.362Z,16.23
2022-08-03T04:25:51.361Z,16.02
2022-08-03T04:28:29.484Z,14.65
2022-08-03T04:30:58.475Z,13.35
2022-08-03T04:33:25.469Z,13.93
2022-08-03T04:36:01.473Z,13.35
2022-08-03T04:38:30.083Z,13.57
2022-08-03T04:40:57.066Z,15.27
2022-08-03T04:43:24.072Z,11.10
2022-08-03T04:45:51.078Z,12.57
2022-08-03T04:48:18.079Z,11.13
2022-08-03T04:50:45.102Z,12.60
2022-08-03T04:53:12.105Z,17.02
2022-08-03T04:55:39.934Z,11.10
2022-08-03T04:58:06.927Z,17.23
2022-08-03T05:00:33.940Z,15.25
2022-08-03T05:03:00.942Z,12.45
2022-08-03T05:05:47.434Z,12.05
2022-08-03T05:08:14.924Z,12.73
2022-08-03T05:10:41.935Z,12.80
2022-08-03T05:13:08.923Z,11.38
2022-08-03T05:15:35.962Z,15.80
2022-08-03T05:18:13.872Z,12.18
2022-08-03T05:20:41.294Z,11.57
2022-08-03T05:23:08.321Z,10.68
2022-08-03T05:25:35.332Z,11.15
2022-08-03T05:28:02.318Z,16.27
2022-08-03T05:30:34.009Z,11.68
2022-08-03T05:33:01.507Z,12.00
2022-08-03T05:36:01.011Z,12.52
2022-08-03T05:38:15.502Z,13.40
2022-08-03T05:40:56.998Z,13.02
2022-08-03T05:43:24.720Z,13.68
2022-08-03T05:46:12.363Z,14.68
2022-08-03T05:48:38.705Z,10.50
2022-08-03T05:51:05.705Z,12.25
2022-08-03T05:53:32.691Z,12.57
2022-08-03T05:56:03.618Z,12.70
2022-08-03T05:58:41.799Z,12.55
2022-08-03T06:01:08.889Z,13.02
2022-08-03T06:03:35.944Z,11.23
2022-08-03T06:06:02.964Z,13.18
2022-08-03T06:08:29.953Z,16.83
2022-08-03T06:10:56.980Z,11.75
2022-08-03T06:13:23.976Z,15.88
2022-08-03T06:15:50.984Z,14.55
2022-08-03T06:18:17.985Z,14.27
2022-08-03T06:20:44.993Z,14.57
2022-08-03T06:23:16.164Z,9.50
2022-08-03T06:25:44.951Z,11.25
2022-08-03T06:28:19.150Z,9.25
2022-08-03T06:30:55.975Z,10.07
2022-08-03T06:33:48.235Z,10.43
2022-08-03T06:36:12.173Z,9.50
2022-08-03T06:38:39.200Z,8.95
2022-08-03T06:41:06.213Z,13.90
2022-08-03T06:43:35.716Z,11.35
2022-08-03T06:46:03.017Z,10.63
2022-08-03T06:48:30.018Z,6.03
2022-08-03T06:50:57.031Z,9.10
2022-08-03T06:53:24.026Z,9.25
2022-08-03T06:55:54.416Z,7.32
2022-08-03T06:58:22.183Z,10.18
2022-08-03T07:00:49.205Z,9.90
2022-08-03T07:03:16.205Z,5.43
2022-08-03T07:05:43.215Z,6.53
2022-08-03T07:08:10.205Z,6.25
2022-08-03T07:10:37.220Z,5.63
2022-08-03T07:13:04.224Z,5.22
2022-08-03T07:15:54.631Z,9.90
2022-08-03T07:18:28.863Z,8.10
2022-08-03T07:20:56.754Z,7.05
2022-08-03T07:23:23.747Z,7.95
2022-08-03T07:25:50.787Z,4.63
2022-08-03T07:28:17.818Z,7.03
2022-08-03T07:30:44.849Z,6.75
2022-08-03T07:33:11.845Z,5.40
2022-08-03T07:35:38.853Z,4.07
2022-08-03T07:38:05.866Z,4.00
2022-08-03T07:40:32.891Z,5.10
2022-08-03T07:42:59.900Z,5.45
2022-08-03T07:45:27.061Z,5.88
2022-08-03T07:47:54.417Z,7.22
2022-08-03T07:50:21.654Z,5.38
2022-08-03T07:52:48.705Z,4.82
2022-08-03T07:55:15.722Z,5.13
2022-08-03T07:57:42.717Z,4.80
2022-08-03T08:00:09.738Z,4.97
2022-08-03T08:02:36.741Z,4.95
2022-08-03T08:05:05.944Z,4.25
2022-08-03T08:07:33.188Z,3.65
2022-08-03T08:10:00.263Z,4.78
2022-08-03T08:12:27.284Z,5.38
2022-08-03T08:14:54.287Z,4.00
2022-08-03T08:17:21.305Z,4.95
2022-08-03T08:19:51.371Z,3.97
2022-08-03T08:22:19.159Z,5.50
2022-08-03T08:24:53.577Z,6.03
2022-08-03T08:27:22.292Z,5.95
2022-08-03T08:29:54.261Z,2.45
2022-08-03T08:32:23.446Z,2.70
2022-08-03T08:34:50.466Z,3.83
2022-08-03T08:37:17.468Z,6.30
2022-08-03T08:39:44.476Z,3.50
2022-08-03T08:42:11.470Z,2.60
2022-08-03T08:44:38.486Z,2.75
2022-08-03T08:47:05.486Z,2.20
2022-08-03T08:49:32.574Z,2.03
2022-08-03T08:52:00.792Z,3.90
2022-08-03T08:54:28.488Z,3.47
2022-08-03T08:56:55.488Z,4.03
2022-08-03T08:59:22.504Z,2.13
2022-08-03T09:01:49.495Z,1.77
2022-08-03T09:04:16.510Z,2.88
2022-08-03T09:06:58.696Z,2.33
2022-08-03T09:10:10.745Z,2.30
2022-08-03T09:12:40.653Z,2.83
2022-08-03T09:15:16.420Z,3.70
2022-08-03T09:17:47.681Z,1.35
2022-08-03T09:20:17.481Z,1.40
2022-08-03T09:22:44.489Z,1.30
2022-08-03T09:25:26.875Z,1.67
2022-08-03T09:27:53.959Z,1.77
2022-08-03T09:30:34.215Z,2.47
2022-08-03T09:33:02.071Z,1.90
2022-08-03T09:35:51.760Z,3.33
2022-08-03T09:38:16.094Z,2.30
2022-08-03T09:40:43.108Z,3.53
2022-08-03T09:43:10.125Z,1.77
2022-08-03T09:45:37.128Z,1.85
2022-08-03T09:48:04.135Z,2.72
2022-08-03T09:50:31.160Z,2.65
2022-08-03T09:52:58.161Z,2.33
2022-08-03T09:56:33.965Z,2.97
2022-08-03T09:58:12.163Z,2.05
2022-08-03T10:00:39.274Z,2.47
2022-08-03T10:03:06.396Z,2.60
2022-08-03T10:05:33.536Z,2.40
2022-08-03T10:08:00.550Z,1.63
2022-08-03T10:10:29.013Z,2.08
2022-08-03T10:12:58.907Z,2.58
2022-08-03T10:16:21.520Z,4.32
2022-08-03T10:18:12.888Z,3.00
2022-08-03T10:20:39.897Z,3.78
2022-08-03T10:23:06.971Z,2.47
2022-08-03T10:25:35.281Z,2.90
2022-08-03T10:28:02.284Z,1.58
2022-08-03T10:30:29.304Z,2.72
2022-08-03T10:32:57.037Z,4.30
2022-08-03T10:35:24.131Z,3.28
2022-08-03T10:37:56.965Z,3.38
2022-08-03T10:40:47.669Z,2.53
2022-08-03T10:43:12.731Z,3.47
2022-08-03T10:45:39.765Z,3.38
2022-08-03T10:48:06.774Z,2.10
2022-08-03T10:50:33.805Z,4.15
2022-08-03T10:53:02.068Z,3.78
2022-08-03T10:55:31.014Z,3.03
2022-08-03T10:57:59.190Z,3.20
2022-08-03T11:00:26.356Z,3.85
2022-08-03T11:02:53.446Z,3.60
2022-08-03T11:05:20.441Z,3.85
2022-08-03T11:07:48.080Z,3.65
2022-08-03T11:10:21.730Z,3.63
2022-08-03T11:12:48.746Z,2.60
2022-08-03T11:15:15.749Z,2.92
2022-08-03T11:17:46.612Z,6.85
2022-08-03T11:20:22.731Z,3.55
2022-08-03T11:22:49.757Z,2.45
2022-08-03T11:25:54.318Z,3.38
2022-08-03T11:28:03.783Z,1.52
2022-08-03T11:30:31.930Z,3.00
2022-08-03T11:32:58.939Z,3.08
2022-08-03T11:35:25.942Z,3.38
2022-08-03T11:38:01.422Z,1.60
2022-08-03T11:40:30.646Z,3.05
2022-08-03T11:42:57.667Z,2.95
2022-08-03T11:45:24.690Z,2.78
2022-08-03T11:47:51.725Z,3.50
2022-08-03T11:50:18.770Z,3.60
2022-08-03T11:52:45.770Z,3.03
2022-08-03T11:55:12.787Z,3.35
2022-08-03T11:59:15.142Z,8.77
2022-08-03T12:00:26.794Z,2.92
2022-08-03T12:02:53.834Z,4.30
2022-08-03T12:05:20.893Z,3.70
2022-08-03T12:08:03.113Z,2.83
2022-08-03T12:10:33.077Z,4.72
2022-08-03T12:13:00.074Z,3.13
2022-08-03T12:15:27.103Z,3.95
2022-08-03T12:17:57.732Z,5.47
2022-08-03T12:20:34.946Z,4.85
2022-08-03T12:23:02.109Z,5.05
2022-08-03T12:25:39.213Z,5.53
2022-08-03T12:28:06.728Z,5.38
2022-08-03T12:30:54.919Z,3.25
2022-08-03T12:33:22.062Z,3.20
2022-08-03T12:35:52.461Z,5.05
2022-08-03T12:38:20.495Z,4.10
2022-08-03T12:40:47.519Z,5.70
2022-08-03T12:43:14.516Z,4.95
2022-08-03T12:45:41.532Z,3.67
2022-08-03T12:48:08.548Z,4.57
2022-08-03T12:50:35.579Z,4.53
2022-08-03T12:53:02.603Z,4.45
2022-08-03T12:55:29.628Z,6.13
2022-08-03T12:58:18.999Z,3.13
2022-08-03T13:00:46.194Z,2.25
2022-08-03T13:03:42.316Z,5.30
2022-08-03T13:06:01.384Z,7.57
2022-08-03T13:08:28.392Z,4.45
2022-08-03T13:10:55.387Z,4.40
2022-08-03T13:13:22.450Z,5.05
2022-08-03T13:15:49.467Z,2.78
2022-08-03T13:18:17.222Z,3.85
2022-08-03T13:20:44.601Z,5.00
2022-08-03T13:23:21.999Z,2.28
2022-08-03T13:25:55.877Z,3.50
2022-08-03T13:28:23.192Z,3.75
2022-08-03T13:30:50.205Z,2.53
2022-08-03T13:33:17.223Z,2.85
2022-08-03T13:35:44.247Z,3.30
2022-08-03T13:38:11.502Z,2.90
2022-08-03T13:40:41.789Z,7.38
2022-08-03T13:43:08.979Z,5.93
2022-08-03T13:45:35.995Z,5.38
2022-08-03T13:48:03.017Z,4.50
2022-08-03T13:50:30.012Z,4.63
2022-08-03T13:52:57.050Z,7.55
2022-08-03T13:55:24.070Z,4.63
2022-08-03T13:58:02.210Z,3.15
2022-08-03T14:00:33.921Z,4.50
2022-08-03T14:03:16.430Z,5.07
2022-08-03T14:05:43.517Z,5.13
2022-08-03T14:08:10.581Z,4.82
2022-08-03T14:10:37.575Z,3.95
2022-08-03T14:13:04.586Z,4.38
2022-08-03T14:15:31.587Z,2.88
2022-08-03T14:17:58.975Z,3.17
2022-08-03T14:20:36.713Z,3.72
2022-08-03T14:23:06.048Z,1.88
2022-08-03T14:25:44.250Z,4.20
2022-08-03T14:28:17.742Z,6.63
2022-08-03T14:30:44.744Z,3.72
2022-08-03T14:33:11.761Z,3.75
2022-08-03T14:35:38.759Z,5.60
2022-08-03T14:38:05.761Z,3.20
2022-08-03T14:40:32.778Z,7.22
2022-08-03T14:42:59.811Z,6.10
2022-08-03T14:45:26.825Z,5.47
2022-08-03T14:50:28.955Z,2.95
2022-08-03T14:50:44.370Z,3.63
2022-08-03T14:53:12.630Z,4.60
2022-08-03T14:55:50.670Z,2.22
2022-08-03T14:58:19.625Z,5.43
2022-08-03T15:00:48.347Z,4.30
2022-08-03T15:03:16.637Z,2.83
2022-08-03T15:05:44.356Z,3.35
2022-08-03T15:08:11.354Z,3.60
2022-08-03T15:10:43.731Z,2.97
2022-08-03T15:13:11.721Z,4.67
2022-08-03T15:15:38.712Z,8.18
2022-08-03T15:18:05.722Z,1.77
2022-08-03T15:20:43.965Z,5.32
2022-08-03T15:23:11.775Z,4.50
2022-08-03T15:26:02.301Z,4.82
2022-08-03T15:28:25.773Z,3.20
2022-08-03T15:30:52.799Z,6.72
2022-08-03T15:33:19.817Z,6.75
2022-08-03T15:35:46.828Z,5.95
2022-08-03T15:38:13.825Z,5.32
2022-08-03T15:40:40.860Z,2.92
2022-08-03T15:43:07.894Z,6.63
2022-08-03T15:45:36.125Z,2.40
2022-08-03T15:48:03.760Z,5.18
2022-08-03T15:50:30.773Z,6.38
2022-08-03T15:52:57.777Z,6.10
2022-08-03T15:55:24.795Z,4.00
2022-08-03T15:59:03.203Z,5.38
2022-08-03T16:00:38.799Z,5.45
2022-08-03T16:03:05.818Z,4.35
2022-08-03T16:05:32.830Z,4.47
2022-08-03T16:08:03.894Z,5.47
2022-08-03T16:10:32.081Z,3.30
2022-08-03T16:12:59.087Z,3.85
2022-08-03T16:15:26.091Z,9.57
2022-08-03T16:17:53.082Z,4.10
2022-08-03T16:20:31.463Z,3.28
2022-08-03T16:23:11.008Z,4.00
2022-08-03T16:25:38.796Z,3.72
2022-08-03T16:28:08.047Z,4.20
2022-08-03T16:30:39.712Z,3.67
2022-08-03T16:33:06.734Z,3.28
2022-08-03T16:35:33.761Z,2.63
2022-08-03T16:38:00.773Z,2.80
2022-08-03T16:40:27.796Z,2.67
2022-08-03T16:42:54.795Z,3.75
2022-08-03T16:45:21.812Z,3.17
2022-08-03T16:47:49.054Z,3.80
2022-08-03T16:50:32.076Z,1.75
2022-08-03T16:52:59.082Z,4.32
2022-08-03T16:55:48.750Z,3.17
2022-08-03T16:58:13.115Z,2.67
2022-08-03T17:00:41.856Z,4.93
2022-08-03T17:03:18.618Z,3.45
2022-08-03T17:05:49.606Z,5.55
2022-08-03T17:08:26.915Z,3.20
2022-08-03T17:10:54.434Z,6.13
2022-08-03T17:13:22.762Z,2.35
2022-08-03T17:16:00.908Z,6.03
2022-08-03T17:18:28.655Z,2.58
2022-08-03T17:20:55.667Z,5.20
2022-08-03T17:23:34.788Z,3.20
2022-08-03T17:26:04.806Z,1.98
2022-08-03T17:28:48.176Z,1.73
2022-08-03T17:31:23.087Z,2.58
2022-08-03T17:33:58.064Z,3.30
2022-08-03T17:36:47.508Z,3.00
2022-08-03T17:39:14.529Z,6.40
2022-08-03T17:41:49.124Z,4.68
2022-08-03T17:44:32.014Z,3.70
2022-08-03T17:47:04.428Z,3.45
2022-08-03T17:49:35.130Z,5.10
2022-08-03T17:52:07.270Z,5.35
2022-08-03T17:54:37.079Z,3.45
2022-08-03T17:57:27.207Z,4.13
2022-08-03T17:59:54.489Z,5.80
2022-08-03T18:02:30.368Z,4.57
2022-08-03T18:05:00.496Z,3.15
2022-08-03T18:07:40.896Z,5.65
2022-08-03T18:10:11.521Z,9.50
2022-08-03T18:12:42.346Z,3.38
2022-08-03T18:15:20.939Z,4.10
2022-08-03T18:17:55.696Z,9.77
2022-08-03T18:20:33.188Z,6.45
2022-08-03T18:23:07.776Z,6.97
2022-08-03T18:25:43.123Z,4.70
2022-08-03T18:28:18.822Z,6.68
2022-08-03T18:30:53.697Z,8.15
2022-08-03T18:34:19.210Z,4.50
2022-08-03T18:36:09.068Z,5.85
2022-08-03T18:38:36.306Z,4.68
2022-08-03T18:41:06.053Z,4.95
2022-08-03T18:43:46.656Z,12.75
2022-08-03T18:46:14.831Z,5.68
2022-08-03T18:48:46.181Z,4.40
2022-08-03T18:51:28.898Z,3.42
2022-08-03T18:54:01.836Z,4.80
2022-08-03T18:56:31.215Z,6.45
2022-08-03T18:59:02.408Z,7.75
2022-08-03T19:02:00.881Z,5.93
2022-08-03T19:04:16.880Z,6.15
2022-08-03T19:06:44.165Z,4.95
2022-08-03T19:09:11.186Z,3.47
2022-08-03T19:12:13.982Z,4.20
2022-08-03T19:14:28.681Z,5.47
2022-08-03T19:16:56.364Z,5.13
2022-08-03T19:19:24.675Z,7.97
2022-08-03T19:21:51.784Z,8.45
2022-08-03T19:24:18.775Z,6.55
2022-08-03T19:26:48.534Z,5.38
2022-08-03T19:29:19.217Z,7.63
2022-08-03T19:31:58.762Z,6.22
2022-08-03T19:34:26.844Z,6.68
2022-08-03T19:36:54.626Z,6.38
2022-08-03T19:39:21.643Z,6.45
2022-08-03T19:41:51.361Z,7.75
2022-08-03T19:44:19.847Z,7.28
2022-08-03T19:46:47.349Z,3.35
2022-08-03T19:49:15.321Z,8.82
2022-08-03T19:52:00.594Z,8.13
2022-08-03T19:54:32.204Z,7.65
2022-08-03T19:56:59.390Z,4.53
2022-08-03T19:59:26.553Z,5.18
2022-08-03T20:01:53.579Z,5.07
2022-08-03T20:04:21.802Z,5.00
2022-08-03T20:06:49.626Z,4.57
2022-08-03T20:09:16.772Z,7.20
2022-08-03T20:11:45.165Z,4.13
2022-08-03T20:14:20.540Z,6.78
2022-08-03T20:16:53.136Z,6.18
2022-08-03T20:19:20.246Z,4.93
2022-08-03T20:21:47.285Z,6.10
2022-08-03T20:24:23.762Z,7.65
2022-08-03T20:26:52.500Z,4.43
2022-08-03T20:29:20.421Z,4.72
2022-08-03T20:32:07.679Z,5.05
2022-08-03T20:34:37.303Z,5.60
2022-08-03T20:37:04.589Z,6.28
2022-08-03T20:39:31.630Z,4.72
2022-08-03T20:41:58.667Z,3.70
2022-08-03T20:44:26.109Z,4.53
2022-08-03T20:47:00.247Z,4.47
2022-08-03T20:49:27.833Z,6.38
2022-08-03T20:51:54.831Z,4.28
2022-08-03T20:54:29.017Z,4.50
2022-08-03T20:56:57.431Z,5.00
2022-08-03T20:59:25.021Z,5.95
2022-08-03T21:01:52.042Z,2.85
2022-08-03T21:04:21.812Z,3.78
2022-08-03T21:06:53.218Z,4.05
2022-08-03T21:09:20.589Z,3.17
2022-08-03T21:11:49.302Z,3.78
2022-08-03T21:14:17.423Z,5.05
2022-08-03T21:16:44.452Z,3.97
2022-08-03T21:19:11.465Z,4.10
2022-08-03T21:21:38.483Z,3.70
2022-08-03T21:24:05.507Z,3.40
2022-08-03T21:26:32.504Z,5.40
2022-08-03T21:28:59.534Z,3.20
2022-08-03T21:31:27.081Z,3.72
2022-08-03T21:33:54.193Z,3.85
2022-08-03T21:36:21.253Z,4.10
2022-08-03T21:38:56.374Z,4.00
2022-08-03T21:41:23.973Z,3.67
2022-08-03T21:43:50.999Z,5.55
2022-08-03T21:46:18.029Z,5.72
2022-08-03T21:48:45.038Z,4.03
2022-08-03T21:51:12.068Z,2.47
2022-08-03T21:54:00.385Z,4.35
2022-08-03T21:56:26.063Z,3.35
2022-08-03T21:58:53.915Z,4.25
2022-08-03T22:01:20.972Z,7.80
2022-08-03T22:03:53.071Z,6.13
2022-08-03T22:06:21.236Z,4.10
2022-08-03T22:08:49.461Z,3.65
2022-08-03T22:11:16.521Z,6.18
2022-08-03T22:13:44.671Z,5.05
2022-08-03T22:16:11.790Z,3.20
2022-08-03T22:18:38.786Z,2.97
2022-08-03T22:21:05.788Z,6.70
2022-08-03T22:23:32.786Z,3.78
2022-08-03T22:25:59.804Z,4.93
2022-08-03T22:28:26.808Z,4.55
2022-08-03T22:30:53.838Z,2.50
2022-08-03T22:33:20.830Z,4.53
2022-08-03T22:35:48.491Z,4.95
2022-08-03T22:38:15.524Z,7.95
2022-08-03T22:40:42.557Z,5.45
2022-08-03T22:43:09.568Z,5.35
2022-08-03T22:46:07.892Z,3.33
2022-08-03T22:48:23.554Z,6.03
2022-08-03T22:50:50.561Z,7.53
2022-08-03T22:53:17.554Z,4.70
2022-08-03T22:55:44.555Z,4.80
2022-08-03T22:58:11.555Z,6.82
2022-08-03T23:00:38.608Z,4.25
2022-08-03T23:03:05.640Z,4.10
2022-08-03T23:06:00.990Z,5.88
2022-08-03T23:08:19.673Z,3.97
2022-08-03T23:10:47.326Z,4.50
2022-08-03T23:13:14.463Z,4.03
2022-08-03T23:15:41.487Z,13.07
2022-08-03T23:18:08.499Z,5.22
2022-08-03T23:20:35.518Z,7.68
2022-08-03T23:23:03.869Z,7.97
2022-08-03T23:25:31.939Z,6.07
2022-08-03T23:28:05.407Z,4.65
2022-08-03T23:30:33.049Z,3.97
2022-08-03T23:33:00.071Z,4.45
2022-08-03T23:36:29.421Z,4.25
2022-08-03T23:38:22.859Z,4.55
2022-08-03T23:40:51.199Z,3.88
2022-08-03T23:43:19.246Z,4.47
2022-08-03T23:46:05.468Z,5.10
2022-08-03T23:48:32.466Z,8.77
2022-08-03T23:50:59.478Z,6.13
2022-08-03T23:53:26.471Z,7.05
2022-08-03T23:55:53.473Z,5.15
2022-08-03T23:58:20.456Z,7.78
